sensor_id;sensor_type;location;lat;lon;timestamp;P1;durP1;ratioP1;P2;durP2;ratioP2
59930;SDS011;45790;51.538;6.736;2023-04-24T00:02:14;2.88;;;0.90;;
59930;SDS011;45790;51.538;6.736;2023-04-24T00:04:40;3.55;;;1.00;;
59930;SDS011;45790;51.538;6.736;2023-04-24T00:07:06;1.90;;;0.90;;
59930;SDS011;45790;51.538;6.736;2023-04-24T00:09:32;2.60;;;1.10;;
59930;SDS011;45790;51.538;6.736;2023-04-24T00:11:57;2.80;;;1.13;;
59930;SDS011;45790;51.538;6.736;2023-04-24T00:14:23;2.85;;;1.00;;
59930;SDS011;45790;51.538;6.736;2023-04-24T00:16:48;2.30;;;1.00;;
59930;SDS011;45790;51.538;6.736;2023-04-24T00:19:13;2.90;;;1.35;;
59930;SDS011;45790;51.538;6.736;2023-04-24T00:21:39;2.55;;;1.40;;
59930;SDS011;45790;51.538;6.736;2023-04-24T00:24:04;2.38;;;1.40;;
59930;SDS011;45790;51.538;6.736;2023-04-24T00:26:29;4.50;;;1.50;;
59930;SDS011;45790;51.538;6.736;2023-04-24T00:28:55;8.18;;;2.30;;
59930;SDS011;45790;51.538;6.736;2023-04-24T00:31:20;3.97;;;1.63;;
59930;SDS011;45790;51.538;6.736;2023-04-24T00:33:45;4.13;;;1.52;;
59930;SDS011;45790;51.538;6.736;2023-04-24T00:36:10;3.10;;;1.80;;
59930;SDS011;45790;51.538;6.736;2023-04-24T00:38:35;4.30;;;1.80;;
59930;SDS011;45790;51.538;6.736;2023-04-24T00:41:01;3.67;;;1.70;;
59930;SDS011;45790;51.538;6.736;2023-04-24T00:43:26;3.42;;;1.98;;
59930;SDS011;45790;51.538;6.736;2023-04-24T00:45:51;5.45;;;2.00;;
59930;SDS011;45790;51.538;6.736;2023-04-24T00:48:16;3.67;;;1.70;;
59930;SDS011;45790;51.538;6.736;2023-04-24T00:50:42;5.10;;;2.07;;
59930;SDS011;45790;51.538;6.736;2023-04-24T00:53:07;3.53;;;2.03;;
59930;SDS011;45790;51.538;6.736;2023-04-24T00:55:32;5.90;;;2.33;;
59930;SDS011;45790;51.538;6.736;2023-04-24T00:57:58;5.32;;;2.35;;
59930;SDS011;45790;51.538;6.736;2023-04-24T01:00:23;4.65;;;2.50;;
59930;SDS011;45790;51.538;6.736;2023-04-24T01:02:48;5.47;;;2.30;;
59930;SDS011;45790;51.538;6.736;2023-04-24T01:05:14;4.13;;;2.50;;
59930;SDS011;45790;51.538;6.736;2023-04-24T01:07:43;4.43;;;2.75;;
59930;SDS011;45790;51.538;6.736;2023-04-24T01:10:10;4.55;;;2.60;;
59930;SDS011;45790;51.538;6.736;2023-04-24T01:12:36;6.68;;;3.00;;
59930;SDS011;45790;51.538;6.736;2023-04-24T01:15:01;6.20;;;3.10;;
59930;SDS011;45790;51.538;6.736;2023-04-24T01:17:28;6.22;;;3.00;;
59930;SDS011;45790;51.538;6.736;2023-04-24T01:19:53;7.25;;;3.08;;
59930;SDS011;45790;51.538;6.736;2023-04-24T01:22:21;6.15;;;3.10;;
59930;SDS011;45790;51.538;6.736;2023-04-24T01:24:46;4.60;;;2.97;;
59930;SDS011;45790;51.538;6.736;2023-04-24T01:27:12;7.78;;;3.25;;
59930;SDS011;45790;51.538;6.736;2023-04-24T01:29:37;5.97;;;3.30;;
59930;SDS011;45790;51.538;6.736;2023-04-24T01:32:03;6.97;;;3.40;;
59930;SDS011;45790;51.538;6.736;2023-04-24T01:34:28;6.30;;;3.67;;
59930;SDS011;45790;51.538;6.736;2023-04-24T01:36:53;5.32;;;3.70;;
59930;SDS011;45790;51.538;6.736;2023-04-24T01:39:18;6.07;;;3.80;;
59930;SDS011;45790;51.538;6.736;2023-04-24T01:41:45;8.15;;;3.70;;
59930;SDS011;45790;51.538;6.736;2023-04-24T01:44:11;6.72;;;4.10;;
59930;SDS011;45790;51.538;6.736;2023-04-24T01:46:36;6.57;;;3.88;;
59930;SDS011;45790;51.538;6.736;2023-04-24T01:49:01;8.52;;;4.38;;
59930;SDS011;45790;51.538;6.736;2023-04-24T01:51:27;8.60;;;4.30;;
59930;SDS011;45790;51.538;6.736;2023-04-24T01:53:52;8.25;;;4.43;;
59930;SDS011;45790;51.538;6.736;2023-04-24T01:56:19;8.75;;;4.20;;
59930;SDS011;45790;51.538;6.736;2023-04-24T01:58:45;8.07;;;4.05;;
59930;SDS011;45790;51.538;6.736;2023-04-24T02:01:14;7.60;;;4.30;;
59930;SDS011;45790;51.538;6.736;2023-04-24T02:03:40;6.47;;;4.05;;
59930;SDS011;45790;51.538;6.736;2023-04-24T02:06:05;10.07;;;4.83;;
59930;SDS011;45790;51.538;6.736;2023-04-24T02:08:30;8.25;;;4.20;;
59930;SDS011;45790;51.538;6.736;2023-04-24T02:10:55;5.53;;;3.90;;
59930;SDS011;45790;51.538;6.736;2023-04-24T02:13:21;7.38;;;4.05;;
59930;SDS011;45790;51.538;6.736;2023-04-24T02:15:46;6.97;;;4.03;;
59930;SDS011;45790;51.538;6.736;2023-04-24T02:18:11;8.65;;;4.57;;
59930;SDS011;45790;51.538;6.736;2023-04-24T02:20:37;8.73;;;4.30;;
59930;SDS011;45790;51.538;6.736;2023-04-24T02:23:02;11.40;;;4.60;;
59930;SDS011;45790;51.538;6.736;2023-04-24T02:25:28;9.35;;;5.10;;
59930;SDS011;45790;51.538;6.736;2023-04-24T02:27:53;11.32;;;5.07;;
59930;SDS011;45790;51.538;6.736;2023-04-24T02:30:18;8.00;;;5.18;;
59930;SDS011;45790;51.538;6.736;2023-04-24T02:32:43;8.18;;;5.35;;
59930;SDS011;45790;51.538;6.736;2023-04-24T02:35:09;9.25;;;5.95;;
59930;SDS011;45790;51.538;6.736;2023-04-24T02:37:34;12.10;;;6.47;;
59930;SDS011;45790;51.538;6.736;2023-04-24T02:39:59;10.38;;;6.38;;
59930;SDS011;45790;51.538;6.736;2023-04-24T02:42:25;13.27;;;6.38;;
59930;SDS011;45790;51.538;6.736;2023-04-24T02:44:53;8.57;;;6.13;;
59930;SDS011;45790;51.538;6.736;2023-04-24T02:47:18;12.27;;;6.03;;
59930;SDS011;45790;51.538;6.736;2023-04-24T02:49:43;9.73;;;6.22;;
59930;SDS011;45790;51.538;6.736;2023-04-24T02:52:09;11.68;;;6.75;;
59930;SDS011;45790;51.538;6.736;2023-04-24T02:54:34;9.43;;;6.70;;
59930;SDS011;45790;51.538;6.736;2023-04-24T02:56:59;10.93;;;6.80;;
59930;SDS011;45790;51.538;6.736;2023-04-24T02:59:26;11.85;;;7.07;;
59930;SDS011;45790;51.538;6.736;2023-04-24T03:01:52;12.40;;;7.70;;
59930;SDS011;45790;51.538;6.736;2023-04-24T03:04:17;12.50;;;8.13;;
59930;SDS011;45790;51.538;6.736;2023-04-24T03:06:45;12.02;;;7.00;;
59930;SDS011;45790;51.538;6.736;2023-04-24T03:09:10;10.93;;;7.40;;
59930;SDS011;45790;51.538;6.736;2023-04-24T03:11:36;11.57;;;7.80;;
59930;SDS011;45790;51.538;6.736;2023-04-24T03:14:01;14.05;;;7.80;;
59930;SDS011;45790;51.538;6.736;2023-04-24T03:16:26;13.23;;;7.82;;
59930;SDS011;45790;51.538;6.736;2023-04-24T03:18:52;14.50;;;8.50;;
59930;SDS011;45790;51.538;6.736;2023-04-24T03:21:17;15.20;;;8.27;;
59930;SDS011;45790;51.538;6.736;2023-04-24T03:23:42;14.23;;;8.07;;
59930;SDS011;45790;51.538;6.736;2023-04-24T03:26:07;13.57;;;8.27;;
59930;SDS011;45790;51.538;6.736;2023-04-24T03:28:32;11.38;;;8.07;;
59930;SDS011;45790;51.538;6.736;2023-04-24T03:30:57;14.52;;;8.18;;
59930;SDS011;45790;51.538;6.736;2023-04-24T03:33:23;15.50;;;8.33;;
59930;SDS011;45790;51.538;6.736;2023-04-24T03:35:48;13.65;;;8.65;;
59930;SDS011;45790;51.538;6.736;2023-04-24T03:38:13;14.90;;;8.55;;
59930;SDS011;45790;51.538;6.736;2023-04-24T03:40:38;15.43;;;8.17;;
59930;SDS011;45790;51.538;6.736;2023-04-24T03:43:03;12.02;;;8.43;;
59930;SDS011;45790;51.538;6.736;2023-04-24T03:45:29;13.85;;;8.63;;
59930;SDS011;45790;51.538;6.736;2023-04-24T03:47:54;12.73;;;8.70;;
59930;SDS011;45790;51.538;6.736;2023-04-24T03:50:19;14.40;;;8.90;;
59930;SDS011;45790;51.538;6.736;2023-04-24T03:52:45;13.70;;;8.70;;
59930;SDS011;45790;51.538;6.736;2023-04-24T03:55:10;15.03;;;8.63;;
59930;SDS011;45790;51.538;6.736;2023-04-24T03:57:37;14.05;;;8.80;;
59930;SDS011;45790;51.538;6.736;2023-04-24T04:00:03;17.77;;;8.70;;
59930;SDS011;45790;51.538;6.736;2023-04-24T04:02:29;13.38;;;8.48;;
59930;SDS011;45790;51.538;6.736;2023-04-24T04:04:54;17.55;;;9.13;;
59930;SDS011;45790;51.538;6.736;2023-04-24T04:07:20;13.88;;;8.43;;
59930;SDS011;45790;51.538;6.736;2023-04-24T04:09:45;16.35;;;8.75;;
59930;SDS011;45790;51.538;6.736;2023-04-24T04:12:10;12.80;;;7.85;;
59930;SDS011;45790;51.538;6.736;2023-04-24T04:14:35;12.05;;;8.20;;
59930;SDS011;45790;51.538;6.736;2023-04-24T04:17:01;15.27;;;8.43;;
59930;SDS011;45790;51.538;6.736;2023-04-24T04:19:26;16.00;;;8.07;;
59930;SDS011;45790;51.538;6.736;2023-04-24T04:21:51;15.40;;;7.85;;
59930;SDS011;45790;51.538;6.736;2023-04-24T04:24:20;13.40;;;8.60;;
59930;SDS011;45790;51.538;6.736;2023-04-24T04:26:47;13.45;;;8.02;;
59930;SDS011;45790;51.538;6.736;2023-04-24T04:29:13;15.00;;;7.90;;
59930;SDS011;45790;51.538;6.736;2023-04-24T04:31:38;16.65;;;7.95;;
59930;SDS011;45790;51.538;6.736;2023-04-24T04:34:03;15.23;;;8.75;;
59930;SDS011;45790;51.538;6.736;2023-04-24T04:36:28;14.88;;;7.40;;
59930;SDS011;45790;51.538;6.736;2023-04-24T04:38:54;12.38;;;7.90;;
59930;SDS011;45790;51.538;6.736;2023-04-24T04:41:19;10.90;;;7.47;;
59930;SDS011;45790;51.538;6.736;2023-04-24T04:43:45;12.27;;;7.78;;
59930;SDS011;45790;51.538;6.736;2023-04-24T04:46:11;12.20;;;8.00;;
59930;SDS011;45790;51.538;6.736;2023-04-24T04:48:36;16.02;;;7.63;;
59930;SDS011;45790;51.538;6.736;2023-04-24T04:51:02;12.65;;;7.25;;
59930;SDS011;45790;51.538;6.736;2023-04-24T04:53:27;15.38;;;7.75;;
59930;SDS011;45790;51.538;6.736;2023-04-24T04:55:52;15.43;;;7.22;;
59930;SDS011;45790;51.538;6.736;2023-04-24T04:58:18;12.00;;;7.35;;
59930;SDS011;45790;51.538;6.736;2023-04-24T05:00:43;11.27;;;6.95;;
59930;SDS011;45790;51.538;6.736;2023-04-24T05:03:09;13.38;;;6.75;;
59930;SDS011;45790;51.538;6.736;2023-04-24T05:05:34;13.55;;;7.30;;
59930;SDS011;45790;51.538;6.736;2023-04-24T05:07:59;11.68;;;6.63;;
59930;SDS011;45790;51.538;6.736;2023-04-24T05:10:24;12.02;;;6.32;;
59930;SDS011;45790;51.538;6.736;2023-04-24T05:12:50;10.10;;;6.53;;
59930;SDS011;45790;51.538;6.736;2023-04-24T05:15:15;10.35;;;6.35;;
59930;SDS011;45790;51.538;6.736;2023-04-24T05:17:40;11.05;;;6.30;;
59930;SDS011;45790;51.538;6.736;2023-04-24T05:20:06;9.30;;;6.03;;
59930;SDS011;45790;51.538;6.736;2023-04-24T05:22:31;10.68;;;5.88;;
59930;SDS011;45790;51.538;6.736;2023-04-24T05:24:57;8.82;;;5.35;;
59930;SDS011;45790;51.538;6.736;2023-04-24T05:27:22;11.38;;;5.38;;
59930;SDS011;45790;51.538;6.736;2023-04-24T05:29:47;6.78;;;5.00;;
59930;SDS011;45790;51.538;6.736;2023-04-24T05:32:13;11.35;;;6.00;;
59930;SDS011;45790;51.538;6.736;2023-04-24T05:34:38;8.23;;;5.70;;
59930;SDS011;45790;51.538;6.736;2023-04-24T05:37:03;8.00;;;5.23;;
59930;SDS011;45790;51.538;6.736;2023-04-24T05:39:32;11.25;;;5.40;;
59930;SDS011;45790;51.538;6.736;2023-04-24T05:41:58;7.03;;;5.07;;
59930;SDS011;45790;51.538;6.736;2023-04-24T05:44:23;8.30;;;5.20;;
59930;SDS011;45790;51.538;6.736;2023-04-24T05:46:48;8.23;;;6.00;;
59930;SDS011;45790;51.538;6.736;2023-04-24T05:49:14;11.45;;;6.38;;
59930;SDS011;45790;51.538;6.736;2023-04-24T05:51:39;7.97;;;5.68;;
59930;SDS011;45790;51.538;6.736;2023-04-24T05:54:04;9.98;;;6.50;;
59930;SDS011;45790;51.538;6.736;2023-04-24T05:56:30;10.50;;;6.57;;
59930;SDS011;45790;51.538;6.736;2023-04-24T05:58:55;9.02;;;5.93;;
59930;SDS011;45790;51.538;6.736;2023-04-24T06:01:20;16.58;;;6.40;;
59930;SDS011;45790;51.538;6.736;2023-04-24T06:03:46;10.20;;;6.20;;
59930;SDS011;45790;51.538;6.736;2023-04-24T06:06:11;9.93;;;6.80;;
59930;SDS011;45790;51.538;6.736;2023-04-24T06:08:36;8.27;;;5.77;;
59930;SDS011;45790;51.538;6.736;2023-04-24T06:11:01;8.85;;;6.65;;
59930;SDS011;45790;51.538;6.736;2023-04-24T06:13:26;11.32;;;6.20;;
59930;SDS011;45790;51.538;6.736;2023-04-24T06:15:54;10.25;;;6.22;;
59930;SDS011;45790;51.538;6.736;2023-04-24T06:18:19;9.07;;;6.10;;
59930;SDS011;45790;51.538;6.736;2023-04-24T06:20:45;11.50;;;6.30;;
59930;SDS011;45790;51.538;6.736;2023-04-24T06:23:10;9.40;;;6.38;;
59930;SDS011;45790;51.538;6.736;2023-04-24T06:25:35;11.52;;;6.15;;
59930;SDS011;45790;51.538;6.736;2023-04-24T06:28:01;8.27;;;6.13;;
59930;SDS011;45790;51.538;6.736;2023-04-24T06:30:27;9.82;;;6.25;;
59930;SDS011;45790;51.538;6.736;2023-04-24T06:32:53;9.48;;;5.95;;
59930;SDS011;45790;51.538;6.736;2023-04-24T06:35:18;10.05;;;6.05;;
59930;SDS011;45790;51.538;6.736;2023-04-24T06:37:43;8.73;;;5.88;;
59930;SDS011;45790;51.538;6.736;2023-04-24T06:40:09;8.38;;;5.35;;
59930;SDS011;45790;51.538;6.736;2023-04-24T06:42:34;7.38;;;5.60;;
59930;SDS011;45790;51.538;6.736;2023-04-24T06:45:00;7.97;;;5.00;;
59930;SDS011;45790;51.538;6.736;2023-04-24T06:47:25;7.90;;;4.90;;
59930;SDS011;45790;51.538;6.736;2023-04-24T06:49:50;7.80;;;4.72;;
59930;SDS011;45790;51.538;6.736;2023-04-24T06:52:17;7.15;;;4.90;;
59930;SDS011;45790;51.538;6.736;2023-04-24T06:54:42;8.73;;;4.68;;
59930;SDS011;45790;51.538;6.736;2023-04-24T06:57:08;7.63;;;4.30;;
59930;SDS011;45790;51.538;6.736;2023-04-24T06:59:33;8.80;;;4.13;;
59930;SDS011;45790;51.538;6.736;2023-04-24T07:01:58;5.60;;;3.85;;
59930;SDS011;45790;51.538;6.736;2023-04-24T07:04:23;5.72;;;3.63;;
59930;SDS011;45790;51.538;6.736;2023-04-24T07:06:50;8.05;;;3.85;;
59930;SDS011;45790;51.538;6.736;2023-04-24T07:09:16;6.38;;;3.47;;
59930;SDS011;45790;51.538;6.736;2023-04-24T07:11:43;5.53;;;3.30;;
59930;SDS011;45790;51.538;6.736;2023-04-24T07:14:09;5.05;;;3.13;;
59930;SDS011;45790;51.538;6.736;2023-04-24T07:16:34;4.50;;;3.20;;
59930;SDS011;45790;51.538;6.736;2023-04-24T07:19:00;6.10;;;3.28;;
59930;SDS011;45790;51.538;6.736;2023-04-24T07:21:25;5.30;;;3.20;;
59930;SDS011;45790;51.538;6.736;2023-04-24T07:23:50;3.80;;;2.53;;
59930;SDS011;45790;51.538;6.736;2023-04-24T07:26:16;3.60;;;2.50;;
59930;SDS011;45790;51.538;6.736;2023-04-24T07:28:41;4.22;;;2.40;;
59930;SDS011;45790;51.538;6.736;2023-04-24T07:31:06;2.83;;;1.97;;
59930;SDS011;45790;51.538;6.736;2023-04-24T07:33:31;3.47;;;1.63;;
59930;SDS011;45790;51.538;6.736;2023-04-24T07:35:57;1.97;;;1.40;;
59930;SDS011;45790;51.538;6.736;2023-04-24T07:38:25;3.40;;;1.10;;
59930;SDS011;45790;51.538;6.736;2023-04-24T07:40:50;4.63;;;1.35;;
59930;SDS011;45790;51.538;6.736;2023-04-24T07:43:16;3.67;;;1.42;;
59930;SDS011;45790;51.538;6.736;2023-04-24T07:45:41;2.35;;;1.33;;
59930;SDS011;45790;51.538;6.736;2023-04-24T07:48:06;3.20;;;1.35;;
59930;SDS011;45790;51.538;6.736;2023-04-24T07:50:33;2.10;;;1.27;;
59930;SDS011;45790;51.538;6.736;2023-04-24T07:52:59;2.60;;;1.25;;
59930;SDS011;45790;51.538;6.736;2023-04-24T07:55:25;2.60;;;1.50;;
59930;SDS011;45790;51.538;6.736;2023-04-24T07:57:50;2.20;;;1.40;;
59930;SDS011;45790;51.538;6.736;2023-04-24T08:00:16;2.95;;;1.63;;
59930;SDS011;45790;51.538;6.736;2023-04-24T08:02:41;2.00;;;1.23;;
59930;SDS011;45790;51.538;6.736;2023-04-24T08:05:06;2.92;;;1.35;;
59930;SDS011;45790;51.538;6.736;2023-04-24T08:07:32;1.95;;;1.10;;
59930;SDS011;45790;51.538;6.736;2023-04-24T08:09:57;1.83;;;1.00;;
59930;SDS011;45790;51.538;6.736;2023-04-24T08:12:24;3.08;;;1.25;;
59930;SDS011;45790;51.538;6.736;2023-04-24T08:14:49;1.63;;;1.00;;
59930;SDS011;45790;51.538;6.736;2023-04-24T08:17:15;1.40;;;0.85;;
59930;SDS011;45790;51.538;6.736;2023-04-24T08:19:41;2.10;;;1.08;;
59930;SDS011;45790;51.538;6.736;2023-04-24T08:22:12;2.67;;;1.10;;
59930;SDS011;45790;51.538;6.736;2023-04-24T08:24:37;2.30;;;1.13;;
59930;SDS011;45790;51.538;6.736;2023-04-24T08:27:02;4.10;;;1.20;;
59930;SDS011;45790;51.538;6.736;2023-04-24T08:29:28;5.65;;;1.70;;
59930;SDS011;45790;51.538;6.736;2023-04-24T08:31:53;5.88;;;1.98;;
59930;SDS011;45790;51.538;6.736;2023-04-24T08:34:19;1.77;;;1.10;;
59930;SDS011;45790;51.538;6.736;2023-04-24T08:36:44;1.45;;;1.15;;
59930;SDS011;45790;51.538;6.736;2023-04-24T08:39:10;1.77;;;1.00;;
59930;SDS011;45790;51.538;6.736;2023-04-24T08:41:35;1.85;;;0.95;;
59930;SDS011;45790;51.538;6.736;2023-04-24T08:44:01;2.40;;;1.20;;
59930;SDS011;45790;51.538;6.736;2023-04-24T08:46:27;2.90;;;1.40;;
59930;SDS011;45790;51.538;6.736;2023-04-24T08:48:52;3.78;;;2.13;;
59930;SDS011;45790;51.538;6.736;2023-04-24T08:51:17;3.67;;;1.50;;
59930;SDS011;45790;51.538;6.736;2023-04-24T08:53:43;2.53;;;1.20;;
59930;SDS011;45790;51.538;6.736;2023-04-24T08:56:08;3.13;;;1.20;;
59930;SDS011;45790;51.538;6.736;2023-04-24T08:58:34;2.40;;;1.40;;
59930;SDS011;45790;51.538;6.736;2023-04-24T09:01:00;3.45;;;1.17;;
59930;SDS011;45790;51.538;6.736;2023-04-24T09:03:26;4.40;;;1.90;;
59930;SDS011;45790;51.538;6.736;2023-04-24T09:05:52;3.35;;;1.20;;
59930;SDS011;45790;51.538;6.736;2023-04-24T09:08:17;2.70;;;1.60;;
59930;SDS011;45790;51.538;6.736;2023-04-24T09:10:43;3.30;;;2.00;;
59930;SDS011;45790;51.538;6.736;2023-04-24T09:13:08;4.13;;;2.75;;
59930;SDS011;45790;51.538;6.736;2023-04-24T09:15:35;5.72;;;2.88;;
59930;SDS011;45790;51.538;6.736;2023-04-24T09:18:00;5.82;;;3.75;;
59930;SDS011;45790;51.538;6.736;2023-04-24T09:20:26;6.30;;;3.33;;
59930;SDS011;45790;51.538;6.736;2023-04-24T09:22:53;8.40;;;3.78;;
59930;SDS011;45790;51.538;6.736;2023-04-24T09:25:18;7.40;;;4.47;;
59930;SDS011;45790;51.538;6.736;2023-04-24T09:27:44;8.43;;;4.75;;
59930;SDS011;45790;51.538;6.736;2023-04-24T09:30:10;7.60;;;4.63;;
59930;SDS011;45790;51.538;6.736;2023-04-24T09:32:36;9.13;;;4.88;;
59930;SDS011;45790;51.538;6.736;2023-04-24T09:37:36;8.07;;;4.50;;
59930;SDS011;45790;51.538;6.736;2023-04-24T09:40:12;10.20;;;4.50;;
59930;SDS011;45790;51.538;6.736;2023-04-24T09:42:37;8.55;;;4.50;;
59930;SDS011;45790;51.538;6.736;2023-04-24T09:45:03;8.88;;;4.85;;
59930;SDS011;45790;51.538;6.736;2023-04-24T09:47:35;12.45;;;5.15;;
59930;SDS011;45790;51.538;6.736;2023-04-24T09:50:01;7.10;;;4.53;;
59930;SDS011;45790;51.538;6.736;2023-04-24T09:52:33;8.70;;;4.90;;
59930;SDS011;45790;51.538;6.736;2023-04-24T09:54:58;10.67;;;5.10;;
59930;SDS011;45790;51.538;6.736;2023-04-24T09:57:23;10.50;;;4.97;;
59930;SDS011;45790;51.538;6.736;2023-04-24T09:59:50;14.02;;;5.10;;
59930;SDS011;45790;51.538;6.736;2023-04-24T10:02:18;8.27;;;5.30;;
59930;SDS011;45790;51.538;6.736;2023-04-24T10:04:53;9.70;;;5.18;;
59930;SDS011;45790;51.538;6.736;2023-04-24T10:07:18;10.20;;;5.45;;
59930;SDS011;45790;51.538;6.736;2023-04-24T10:09:44;9.23;;;5.35;;
59930;SDS011;45790;51.538;6.736;2023-04-24T10:12:09;10.00;;;4.38;;
59930;SDS011;45790;51.538;6.736;2023-04-24T10:14:35;10.93;;;4.88;;
59930;SDS011;45790;51.538;6.736;2023-04-24T10:17:01;8.55;;;3.80;;
59930;SDS011;45790;51.538;6.736;2023-04-24T10:19:26;8.77;;;3.80;;
59930;SDS011;45790;51.538;6.736;2023-04-24T10:21:51;7.20;;;3.50;;
59930;SDS011;45790;51.538;6.736;2023-04-24T10:24:17;10.70;;;3.78;;
59930;SDS011;45790;51.538;6.736;2023-04-24T10:26:43;11.15;;;3.67;;
59930;SDS011;45790;51.538;6.736;2023-04-24T10:29:12;12.68;;;4.07;;
59930;SDS011;45790;51.538;6.736;2023-04-24T10:31:40;10.48;;;3.92;;
59930;SDS011;45790;51.538;6.736;2023-04-24T10:34:06;11.65;;;3.97;;
59930;SDS011;45790;51.538;6.736;2023-04-24T10:36:35;11.25;;;3.60;;
59930;SDS011;45790;51.538;6.736;2023-04-24T10:39:02;11.30;;;3.55;;
59930;SDS011;45790;51.538;6.736;2023-04-24T10:41:27;12.90;;;3.75;;
59930;SDS011;45790;51.538;6.736;2023-04-24T10:46:29;11.32;;;3.70;;
59930;SDS011;45790;51.538;6.736;2023-04-24T10:48:54;8.20;;;3.67;;
59930;SDS011;45790;51.538;6.736;2023-04-24T10:51:22;12.70;;;4.30;;
59930;SDS011;45790;51.538;6.736;2023-04-24T10:53:49;14.23;;;4.35;;
59930;SDS011;45790;51.538;6.736;2023-04-24T10:56:15;11.50;;;3.25;;
59930;SDS011;45790;51.538;6.736;2023-04-24T10:58:42;11.13;;;4.20;;
59930;SDS011;45790;51.538;6.736;2023-04-24T11:01:11;11.23;;;4.35;;
59930;SDS011;45790;51.538;6.736;2023-04-24T11:03:53;12.02;;;3.88;;
59930;SDS011;45790;51.538;6.736;2023-04-24T11:06:19;12.15;;;3.65;;
59930;SDS011;45790;51.538;6.736;2023-04-24T11:08:53;10.07;;;3.47;;
59930;SDS011;45790;51.538;6.736;2023-04-24T11:11:23;10.18;;;3.35;;
59930;SDS011;45790;51.538;6.736;2023-04-24T11:16:25;13.60;;;4.27;;
59930;SDS011;45790;51.538;6.736;2023-04-24T11:18:51;17.13;;;3.70;;
59930;SDS011;45790;51.538;6.736;2023-04-24T11:21:19;8.40;;;3.88;;
59930;SDS011;45790;51.538;6.736;2023-04-24T11:23:45;10.73;;;3.67;;
59930;SDS011;45790;51.538;6.736;2023-04-24T11:26:17;10.50;;;3.35;;
59930;SDS011;45790;51.538;6.736;2023-04-24T11:28:52;10.95;;;3.78;;
59930;SDS011;45790;51.538;6.736;2023-04-24T11:34:06;10.13;;;3.40;;
59930;SDS011;45790;51.538;6.736;2023-04-24T11:36:31;11.73;;;3.65;;
59930;SDS011;45790;51.538;6.736;2023-04-24T11:38:57;8.80;;;2.75;;
59930;SDS011;45790;51.538;6.736;2023-04-24T11:41:22;8.60;;;3.53;;
59930;SDS011;45790;51.538;6.736;2023-04-24T11:43:47;10.10;;;3.20;;
59930;SDS011;45790;51.538;6.736;2023-04-24T11:46:16;13.57;;;3.60;;
59930;SDS011;45790;51.538;6.736;2023-04-24T11:48:44;9.52;;;2.90;;
59930;SDS011;45790;51.538;6.736;2023-04-24T11:51:11;10.35;;;3.05;;
59930;SDS011;45790;51.538;6.736;2023-04-24T11:53:36;8.00;;;2.72;;
59930;SDS011;45790;51.538;6.736;2023-04-24T11:56:02;9.80;;;3.20;;
59930;SDS011;45790;51.538;6.736;2023-04-24T11:58:28;6.03;;;2.40;;
59930;SDS011;45790;51.538;6.736;2023-04-24T12:00:59;7.93;;;2.38;;
59930;SDS011;45790;51.538;6.736;2023-04-24T12:03:26;12.90;;;2.45;;
59930;SDS011;45790;51.538;6.736;2023-04-24T12:05:51;7.93;;;2.70;;
59930;SDS011;45790;51.538;6.736;2023-04-24T12:08:28;7.80;;;2.40;;
59930;SDS011;45790;51.538;6.736;2023-04-24T12:10:54;9.63;;;2.50;;
59930;SDS011;45790;51.538;6.736;2023-04-24T12:13:19;8.10;;;2.33;;
59930;SDS011;45790;51.538;6.736;2023-04-24T12:15:44;8.10;;;2.80;;
59930;SDS011;45790;51.538;6.736;2023-04-24T12:18:11;5.07;;;2.08;;
59930;SDS011;45790;51.538;6.736;2023-04-24T12:20:37;8.77;;;2.47;;
59930;SDS011;45790;51.538;6.736;2023-04-24T12:23:02;8.07;;;2.30;;
59930;SDS011;45790;51.538;6.736;2023-04-24T12:25:28;6.07;;;2.40;;
59930;SDS011;45790;51.538;6.736;2023-04-24T12:30:33;7.93;;;2.50;;
59930;SDS011;45790;51.538;6.736;2023-04-24T12:32:58;6.80;;;2.10;;
59930;SDS011;45790;51.538;6.736;2023-04-24T12:35:24;5.35;;;2.00;;
59930;SDS011;45790;51.538;6.736;2023-04-24T12:37:50;5.10;;;2.08;;
59930;SDS011;45790;51.538;6.736;2023-04-24T12:40:16;6.07;;;2.38;;
59930;SDS011;45790;51.538;6.736;2023-04-24T12:42:48;6.85;;;1.90;;
59930;SDS011;45790;51.538;6.736;2023-04-24T12:45:14;6.43;;;1.75;;
59930;SDS011;45790;51.538;6.736;2023-04-24T12:47:40;7.07;;;1.80;;
59930;SDS011;45790;51.538;6.736;2023-04-24T12:50:07;7.07;;;2.25;;
59930;SDS011;45790;51.538;6.736;2023-04-24T12:52:32;6.82;;;1.70;;
59930;SDS011;45790;51.538;6.736;2023-04-24T12:54:58;4.05;;;1.63;;
59930;SDS011;45790;51.538;6.736;2023-04-24T12:57:27;4.88;;;1.83;;
59930;SDS011;45790;51.538;6.736;2023-04-24T12:59:54;4.57;;;1.90;;
59930;SDS011;45790;51.538;6.736;2023-04-24T13:02:19;5.53;;;2.10;;
59930;SDS011;45790;51.538;6.736;2023-04-24T13:04:46;5.15;;;1.80;;
59930;SDS011;45790;51.538;6.736;2023-04-24T13:07:12;6.15;;;2.10;;
59930;SDS011;45790;51.538;6.736;2023-04-24T13:09:37;4.22;;;1.80;;
59930;SDS011;45790;51.538;6.736;2023-04-24T13:12:03;6.10;;;1.80;;
59930;SDS011;45790;51.538;6.736;2023-04-24T13:14:30;6.22;;;1.77;;
59930;SDS011;45790;51.538;6.736;2023-04-24T13:16:55;3.85;;;1.75;;
59930;SDS011;45790;51.538;6.736;2023-04-24T13:19:20;4.72;;;1.80;;
59930;SDS011;45790;51.538;6.736;2023-04-24T13:21:46;5.78;;;1.50;;
59930;SDS011;45790;51.538;6.736;2023-04-24T13:24:11;4.22;;;1.40;;
59930;SDS011;45790;51.538;6.736;2023-04-24T13:26:37;5.00;;;1.55;;
59930;SDS011;45790;51.538;6.736;2023-04-24T13:29:03;7.40;;;1.80;;
59930;SDS011;45790;51.538;6.736;2023-04-24T13:31:28;4.40;;;1.90;;
59930;SDS011;45790;51.538;6.736;2023-04-24T13:33:53;6.80;;;2.30;;
59930;SDS011;45790;51.538;6.736;2023-04-24T13:36:19;5.20;;;1.98;;
59930;SDS011;45790;51.538;6.736;2023-04-24T13:38:44;5.83;;;1.83;;
59930;SDS011;45790;51.538;6.736;2023-04-24T13:41:09;3.85;;;1.50;;
59930;SDS011;45790;51.538;6.736;2023-04-24T13:43:34;6.93;;;1.73;;
59930;SDS011;45790;51.538;6.736;2023-04-24T13:46:00;3.75;;;1.58;;
59930;SDS011;45790;51.538;6.736;2023-04-24T13:48:27;8.38;;;1.75;;
59930;SDS011;45790;51.538;6.736;2023-04-24T13:50:53;4.28;;;1.40;;
59930;SDS011;45790;51.538;6.736;2023-04-24T13:53:18;8.32;;;1.70;;
59930;SDS011;45790;51.538;6.736;2023-04-24T13:55:43;6.70;;;1.50;;
59930;SDS011;45790;51.538;6.736;2023-04-24T13:58:08;5.15;;;1.48;;
59930;SDS011;45790;51.538;6.736;2023-04-24T14:00:34;5.03;;;1.63;;
59930;SDS011;45790;51.538;6.736;2023-04-24T14:02:59;3.30;;;1.60;;
59930;SDS011;45790;51.538;6.736;2023-04-24T14:05:24;3.95;;;1.50;;
59930;SDS011;45790;51.538;6.736;2023-04-24T14:07:50;4.72;;;1.60;;
59930;SDS011;45790;51.538;6.736;2023-04-24T14:10:15;5.75;;;1.80;;
59930;SDS011;45790;51.538;6.736;2023-04-24T14:12:41;4.95;;;1.70;;
59930;SDS011;45790;51.538;6.736;2023-04-24T14:15:06;7.18;;;1.90;;
59930;SDS011;45790;51.538;6.736;2023-04-24T14:17:33;5.70;;;2.13;;
59930;SDS011;45790;51.538;6.736;2023-04-24T14:19:58;6.50;;;2.65;;
59930;SDS011;45790;51.538;6.736;2023-04-24T14:22:25;4.68;;;1.98;;
59930;SDS011;45790;51.538;6.736;2023-04-24T14:24:50;7.28;;;2.33;;
59930;SDS011;45790;51.538;6.736;2023-04-24T14:27:16;6.30;;;2.00;;
59930;SDS011;45790;51.538;6.736;2023-04-24T14:29:41;5.25;;;2.42;;
59930;SDS011;45790;51.538;6.736;2023-04-24T14:32:06;6.60;;;2.45;;
59930;SDS011;45790;51.538;6.736;2023-04-24T14:34:31;5.68;;;2.00;;
59930;SDS011;45790;51.538;6.736;2023-04-24T14:36:57;4.37;;;2.00;;
59930;SDS011;45790;51.538;6.736;2023-04-24T14:39:23;3.40;;;1.65;;
59930;SDS011;45790;51.538;6.736;2023-04-24T14:41:51;3.58;;;1.63;;
59930;SDS011;45790;51.538;6.736;2023-04-24T14:44:16;6.28;;;1.92;;
59930;SDS011;45790;51.538;6.736;2023-04-24T14:46:41;4.65;;;1.60;;
59930;SDS011;45790;51.538;6.736;2023-04-24T14:49:07;3.80;;;1.40;;